createdAt,value
2017-09-16T00:01:56.604Z,99.90
2017-09-16T00:04:24.690Z,99.90
2017-09-16T00:06:52.770Z,99.90
2017-09-16T00:09:20.841Z,99.90
2017-09-16T00:11:48.914Z,99.90
2017-09-16T00:14:16.992Z,99.90
2017-09-16T00:16:45.072Z,99.90
2017-09-16T00:19:13.139Z,99.90
2017-09-16T00:21:41.203Z,99.90
2017-09-16T00:24:09.275Z,99.90
2017-09-16T00:26:37.348Z,99.90
2017-09-16T00:29:05.428Z,99.90
2017-09-16T00:31:33.501Z,99.90
2017-09-16T00:34:01.832Z,99.90
2017-09-16T00:36:29.897Z,99.90
2017-09-16T00:38:57.963Z,99.90
2017-09-16T00:41:26.035Z,99.90
2017-09-16T00:43:54.099Z,99.90
2017-09-16T00:46:22.178Z,99.90
2017-09-16T00:48:50.371Z,99.90
2017-09-16T00:51:18.446Z,99.90
2017-09-16T00:53:46.520Z,99.90
2017-09-16T00:56:14.588Z,99.90
2017-09-16T00:58:42.667Z,99.90
2017-09-16T01:01:10.722Z,99.90
2017-09-16T01:03:39.300Z,99.90
2017-09-16T01:06:07.366Z,99.90
2017-09-16T01:08:35.435Z,99.90
2017-09-16T01:11:03.511Z,99.90
2017-09-16T01:13:31.583Z,99.90
2017-09-16T01:15:59.675Z,99.90
2017-09-16T01:18:27.763Z,99.90
2017-09-16T01:20:55.851Z,99.90
2017-09-16T01:23:23.914Z,99.90
2017-09-16T01:25:51.979Z,99.90
2017-09-16T01:28:20.055Z,99.90
2017-09-16T01:30:48.125Z,99.90
2017-09-16T01:33:16.226Z,99.90
2017-09-16T01:35:44.263Z,99.90
2017-09-16T01:38:12.331Z,99.90
2017-09-16T01:40:40.407Z,99.90
2017-09-16T01:43:08.491Z,99.90
2017-09-16T01:45:36.566Z,99.90
2017-09-16T01:48:04.631Z,99.90
2017-09-16T01:50:32.703Z,99.90
2017-09-16T01:53:00.769Z,99.90
2017-09-16T01:55:29.608Z,99.90
2017-09-16T01:57:57.674Z,99.90
2017-09-16T02:00:25.755Z,99.90
2017-09-16T02:02:54.590Z,99.90
2017-09-16T02:05:22.676Z,99.90
2017-09-16T02:07:51.524Z,99.90
2017-09-16T02:10:19.587Z,99.90
2017-09-16T02:12:47.688Z,99.90
2017-09-16T02:15:15.776Z,99.90
2017-09-16T02:17:43.854Z,99.90
2017-09-16T02:20:12.711Z,99.90
2017-09-16T02:22:40.775Z,99.90
2017-09-16T02:25:08.847Z,99.90
2017-09-16T02:27:36.916Z,99.90
2017-09-16T02:30:04.991Z,99.90
2017-09-16T02:32:33.077Z,99.90
2017-09-16T02:35:01.131Z,99.90
2017-09-16T02:37:29.202Z,99.90
2017-09-16T02:39:57.287Z,99.90
2017-09-16T02:42:25.346Z,99.90
2017-09-16T02:44:53.441Z,99.90
2017-09-16T02:47:21.510Z,99.90
2017-09-16T02:49:49.574Z,99.90
2017-09-16T02:52:17.656Z,99.90
2017-09-16T02:54:45.728Z,99.90
2017-09-16T02:57:13.820Z,99.90
2017-09-16T02:59:41.874Z,99.90
2017-09-16T03:02:09.975Z,99.90
2017-09-16T03:04:38.032Z,99.90
2017-09-16T03:07:06.114Z,99.90
2017-09-16T03:09:34.182Z,99.90
2017-09-16T03:12:02.255Z,99.90
2017-09-16T03:14:30.323Z,99.90
2017-09-16T03:16:58.398Z,99.90
2017-09-16T03:19:27.606Z,99.90
2017-09-16T03:21:55.640Z,99.90
2017-09-16T03:24:23.733Z,99.90
2017-09-16T03:26:51.804Z,99.90
2017-09-16T03:29:19.870Z,99.90
2017-09-16T03:31:48.455Z,99.90
2017-09-16T03:34:16.526Z,99.90
2017-09-16T03:36:44.602Z,99.90
2017-09-16T03:39:12.671Z,99.90
2017-09-16T03:41:40.743Z,99.90
2017-09-16T03:44:08.807Z,99.90
2017-09-16T03:46:36.891Z,99.90
2017-09-16T03:49:04.959Z,99.90
2017-09-16T03:51:34.550Z,99.90
2017-09-16T03:54:02.631Z,99.90
2017-09-16T03:56:30.719Z,99.90
2017-09-16T03:58:58.770Z,99.90
2017-09-16T04:01:38.746Z,99.90
2017-09-16T04:04:06.806Z,99.90
2017-09-16T04:06:35.635Z,99.90
2017-09-16T04:09:03.748Z,99.90
2017-09-16T04:11:31.835Z,99.90
2017-09-16T04:13:59.898Z,99.90
2017-09-16T04:16:27.967Z,99.90
2017-09-16T04:18:56.090Z,99.90
2017-09-16T04:21:24.180Z,99.90
2017-09-16T04:23:52.251Z,99.90
2017-09-16T04:26:20.336Z,99.90
2017-09-16T04:28:48.438Z,99.90
2017-09-16T04:31:16.522Z,99.90
2017-09-16T04:33:44.578Z,99.90
2017-09-16T04:36:12.642Z,99.90
2017-09-16T04:38:40.720Z,99.90
2017-09-16T04:41:08.790Z,99.90
2017-09-16T04:43:37.654Z,99.90
2017-09-16T04:46:05.727Z,99.90
2017-09-16T04:48:33.798Z,99.90
2017-09-16T04:51:01.862Z,99.90
2017-09-16T04:53:29.935Z,99.90
2017-09-16T04:55:58.020Z,99.90
2017-09-16T04:58:26.099Z,99.90
2017-09-16T05:00:54.191Z,99.90
2017-09-16T05:03:22.242Z,99.90
2017-09-16T05:05:50.359Z,99.90
2017-09-16T05:08:18.385Z,99.90
2017-09-16T05:10:46.460Z,99.90
2017-09-16T05:13:15.314Z,99.90
2017-09-16T05:15:43.371Z,99.90
2017-09-16T05:18:11.448Z,99.90
2017-09-16T05:20:39.522Z,99.90
2017-09-16T05:23:07.591Z,99.90
2017-09-16T05:25:35.672Z,99.90
2017-09-16T05:28:03.730Z,99.90
2017-09-16T05:30:31.807Z,99.90
2017-09-16T05:32:59.874Z,99.90
2017-09-16T05:35:27.970Z,99.90
2017-09-16T05:37:56.038Z,99.90
2017-09-16T05:40:24.116Z,99.90
2017-09-16T05:42:52.184Z,99.90
2017-09-16T05:45:20.366Z,99.90
2017-09-16T05:47:48.449Z,99.90
2017-09-16T05:50:16.510Z,99.90
2017-09-16T05:52:44.619Z,99.90
2017-09-16T05:55:13.513Z,99.90
2017-09-16T05:57:41.639Z,99.90
2017-09-16T06:00:10.467Z,99.90
2017-09-16T06:02:38.536Z,99.90
2017-09-16T06:05:06.666Z,99.90
2017-09-16T06:07:34.764Z,99.90
2017-09-16T06:10:02.831Z,99.90
2017-09-16T06:12:31.711Z,99.90
2017-09-16T06:14:59.806Z,99.90
2017-09-16T06:17:27.866Z,99.90
2017-09-16T06:19:55.951Z,99.90
2017-09-16T06:22:25.535Z,99.90
2017-09-16T06:24:54.366Z,99.90
2017-09-16T06:27:22.456Z,99.90
2017-09-16T06:29:50.527Z,99.90
2017-09-16T06:32:18.612Z,99.90
2017-09-16T06:34:47.459Z,99.90
2017-09-16T06:37:15.565Z,99.90
2017-09-16T06:39:43.630Z,99.90
2017-09-16T06:42:11.735Z,99.90
2017-09-16T06:44:40.571Z,99.90
2017-09-16T06:47:08.683Z,99.90
2017-09-16T06:49:36.780Z,99.90
2017-09-16T06:52:05.647Z,99.90
2017-09-16T06:54:33.759Z,99.90
2017-09-16T06:57:02.635Z,99.90
2017-09-16T06:59:30.739Z,99.90
2017-09-16T07:01:58.861Z,99.90
2017-09-16T07:04:27.778Z,99.90
2017-09-16T07:06:56.625Z,99.90
2017-09-16T07:09:25.476Z,99.90
2017-09-16T07:11:53.595Z,99.90
2017-09-16T07:14:22.511Z,99.90
2017-09-16T07:16:50.608Z,99.90
2017-09-16T07:19:18.676Z,99.90
2017-09-16T07:21:46.776Z,99.90
2017-09-16T07:24:14.859Z,99.90
2017-09-16T07:26:43.020Z,99.90
2017-09-16T07:29:11.135Z,99.90
2017-09-16T07:31:39.247Z,99.90
2017-09-16T07:34:08.069Z,99.90
2017-09-16T07:36:36.171Z,99.90
2017-09-16T07:39:04.333Z,99.60
2017-09-16T07:41:32.439Z,99.90
2017-09-16T07:44:01.138Z,99.90
2017-09-16T07:46:29.236Z,99.90
2017-09-16T07:48:58.557Z,99.90
2017-09-16T07:51:27.928Z,99.60
2017-09-16T07:53:56.108Z,99.30
2017-09-16T07:56:24.254Z,99.20
2017-09-16T07:58:52.324Z,98.90
2017-09-16T08:01:20.396Z,99.10
2017-09-16T08:03:48.463Z,97.90
2017-09-16T08:06:16.546Z,98.10
2017-09-16T08:08:44.631Z,98.30
2017-09-16T08:11:12.695Z,98.00
2017-09-16T08:13:40.767Z,98.00
2017-09-16T08:16:08.839Z,98.40
2017-09-16T08:18:37.674Z,98.20
2017-09-16T08:21:05.759Z,98.20
2017-09-16T08:23:33.815Z,97.90
2017-09-16T08:26:02.688Z,97.60
2017-09-16T08:28:30.751Z,97.50
2017-09-16T08:30:58.806Z,98.30
2017-09-16T08:33:26.870Z,98.60
2017-09-16T08:35:54.938Z,97.30
2017-09-16T08:38:23.011Z,97.20
2017-09-16T08:40:51.080Z,97.00
2017-09-16T08:43:19.160Z,97.00
2017-09-16T08:45:47.218Z,97.00
2017-09-16T08:48:15.271Z,96.10
2017-09-16T08:50:43.369Z,95.90
2017-09-16T08:53:11.457Z,96.50
2017-09-16T08:55:39.505Z,95.60
2017-09-16T08:58:07.557Z,94.80
2017-09-16T09:00:35.631Z,94.50
2017-09-16T09:03:03.772Z,94.40
2017-09-16T09:05:31.824Z,94.60
2017-09-16T09:07:59.863Z,92.60
2017-09-16T09:10:27.964Z,92.10
2017-09-16T09:12:56.794Z,91.50
2017-09-16T09:15:24.842Z,91.50
2017-09-16T09:17:52.940Z,90.70
2017-09-16T09:20:20.987Z,90.70
2017-09-16T09:22:49.079Z,90.60
2017-09-16T09:25:17.888Z,87.90
2017-09-16T09:27:45.965Z,88.00
2017-09-16T09:30:14.054Z,87.20
2017-09-16T09:32:42.131Z,86.30
2017-09-16T09:35:10.197Z,85.50
2017-09-16T09:37:38.276Z,86.20
2017-09-16T09:40:06.358Z,78.70
2017-09-16T09:42:34.430Z,72.70
2017-09-16T09:45:02.506Z,67.70
2017-09-16T09:47:30.571Z,61.60
2017-09-16T09:49:58.649Z,58.50
2017-09-16T09:52:26.716Z,54.50
2017-09-16T09:54:54.799Z,51.60
2017-09-16T09:57:22.875Z,48.80
2017-09-16T09:59:52.451Z,52.50
2017-09-16T10:02:20.513Z,52.40
2017-09-16T10:04:48.574Z,52.10
2017-09-16T10:07:16.667Z,49.20
2017-09-16T10:09:44.714Z,47.50
2017-09-16T10:12:12.808Z,46.90
2017-09-16T10:14:40.905Z,47.70
2017-09-16T10:17:09.740Z,50.30
2017-09-16T10:19:37.903Z,50.30
2017-09-16T10:22:05.952Z,50.80
2017-09-16T10:24:34.019Z,49.40
2017-09-16T10:27:02.090Z,48.00
2017-09-16T10:29:30.160Z,46.10
2017-09-16T10:31:58.226Z,45.70
2017-09-16T10:34:27.047Z,42.00
2017-09-16T10:36:55.108Z,41.90
2017-09-16T10:39:23.198Z,41.50
2017-09-16T10:41:51.266Z,39.40
2017-09-16T10:44:19.351Z,38.00
2017-09-16T10:46:47.426Z,36.80
2017-09-16T10:49:15.490Z,36.40
2017-09-16T10:51:43.875Z,36.00
2017-09-16T10:54:11.962Z,37.40
2017-09-16T10:56:39.994Z,36.00
2017-09-16T10:59:08.061Z,37.40
2017-09-16T11:01:36.125Z,37.90
2017-09-16T11:04:04.208Z,37.00
2017-09-16T11:06:32.257Z,36.00
2017-09-16T11:09:00.347Z,35.20
2017-09-16T11:11:28.407Z,35.20
2017-09-16T11:13:56.502Z,33.40
2017-09-16T11:16:24.660Z,33.50
2017-09-16T11:18:52.736Z,33.90
2017-09-16T11:21:20.787Z,33.50
2017-09-16T11:23:48.860Z,35.90
2017-09-16T11:26:19.146Z,36.10
2017-09-16T11:28:47.192Z,36.10
2017-09-16T11:31:15.286Z,36.10
2017-09-16T11:33:43.352Z,36.10
2017-09-16T11:36:11.383Z,37.00
2017-09-16T11:38:40.218Z,34.20
2017-09-16T11:41:08.292Z,34.10
2017-09-16T11:43:36.368Z,32.60
2017-09-16T11:46:04.450Z,32.30
2017-09-16T11:48:32.503Z,33.70
2017-09-16T11:51:00.571Z,36.00
2017-09-16T11:53:28.654Z,38.30
2017-09-16T11:55:56.726Z,41.30
2017-09-16T11:58:24.804Z,44.10
2017-09-16T12:00:52.872Z,46.20
2017-09-16T12:03:20.932Z,47.40
2017-09-16T12:05:48.983Z,49.00
2017-09-16T12:08:17.046Z,50.40
2017-09-16T12:10:45.125Z,51.60
2017-09-16T12:13:13.533Z,51.70
2017-09-16T12:15:41.595Z,53.60
2017-09-16T12:18:09.648Z,55.50
2017-09-16T12:20:37.711Z,54.40
2017-09-16T12:23:05.807Z,53.40
2017-09-16T12:25:33.867Z,54.80
2017-09-16T12:28:01.964Z,52.10
2017-09-16T12:30:30.016Z,53.10
2017-09-16T12:32:58.083Z,55.90
2017-09-16T12:35:26.154Z,55.40
2017-09-16T12:37:54.232Z,56.40
2017-09-16T12:40:22.295Z,55.40
2017-09-16T12:42:50.388Z,54.70
2017-09-16T12:45:18.465Z,54.10
2017-09-16T12:47:46.531Z,53.40
2017-09-16T12:50:14.605Z,55.10
2017-09-16T12:52:42.652Z,53.70
2017-09-16T12:55:10.709Z,53.70
2017-09-16T12:57:38.781Z,53.00
2017-09-16T13:00:06.857Z,53.30
2017-09-16T13:02:34.931Z,54.30
2017-09-16T13:05:03.008Z,54.70
2017-09-16T13:07:31.093Z,55.20
2017-09-16T13:09:59.159Z,55.30
2017-09-16T13:12:27.235Z,56.90
2017-09-16T13:14:55.318Z,56.60
2017-09-16T13:17:23.371Z,58.10
2017-09-16T13:19:51.462Z,58.60
2017-09-16T13:22:19.531Z,59.10
2017-09-16T13:24:47.621Z,58.60
2017-09-16T13:27:15.704Z,58.40
2017-09-16T13:29:43.761Z,57.80
2017-09-16T13:32:11.825Z,57.20
2017-09-16T13:34:39.905Z,58.00
2017-09-16T13:37:07.951Z,58.40
2017-09-16T13:39:36.005Z,59.00
2017-09-16T13:42:04.075Z,58.30
2017-09-16T13:44:32.130Z,58.40
2017-09-16T13:47:00.959Z,60.00
2017-09-16T13:49:29.022Z,60.00
2017-09-16T13:51:57.107Z,59.60
2017-09-16T13:54:25.173Z,58.10
2017-09-16T13:56:53.293Z,58.80
2017-09-16T13:59:22.143Z,61.90
2017-09-16T14:01:50.199Z,61.80
2017-09-16T14:04:18.242Z,61.30
2017-09-16T14:06:46.310Z,62.50
2017-09-16T14:09:15.139Z,60.40
2017-09-16T14:11:43.202Z,60.30
2017-09-16T14:14:11.256Z,59.10
2017-09-16T14:16:39.342Z,57.70
2017-09-16T14:19:07.388Z,58.00
2017-09-16T14:21:35.472Z,58.50
2017-09-16T14:24:03.530Z,59.00
2017-09-16T14:26:31.618Z,59.60
2017-09-16T14:28:59.673Z,58.50
2017-09-16T14:31:27.743Z,58.60
2017-09-16T14:33:55.855Z,59.20
2017-09-16T14:36:23.967Z,62.10
2017-09-16T14:38:52.039Z,60.10
2017-09-16T14:41:20.132Z,60.00
2017-09-16T14:43:48.219Z,57.00
2017-09-16T14:46:16.343Z,57.10
2017-09-16T14:48:44.430Z,59.90
2017-09-16T14:51:12.544Z,59.20
2017-09-16T14:53:40.605Z,56.80
2017-09-16T14:56:09.479Z,58.50
2017-09-16T14:58:37.540Z,58.70
2017-09-16T15:01:05.636Z,59.70
2017-09-16T15:03:33.758Z,60.00
2017-09-16T15:06:02.560Z,60.90
2017-09-16T15:08:30.647Z,60.90
2017-09-16T15:10:58.695Z,58.90
2017-09-16T15:13:26.763Z,58.80
2017-09-16T15:15:54.866Z,57.40
2017-09-16T15:18:23.228Z,57.70
2017-09-16T15:20:51.290Z,58.20
2017-09-16T15:23:19.350Z,57.50
2017-09-16T15:25:47.415Z,57.80
2017-09-16T15:28:15.499Z,57.60
2017-09-16T15:30:43.595Z,58.00
2017-09-16T15:33:11.650Z,58.40
2017-09-16T15:35:39.711Z,59.80
2017-09-16T15:38:07.779Z,58.90
2017-09-16T15:40:35.856Z,58.70
2017-09-16T15:43:04.700Z,57.10
2017-09-16T15:45:32.763Z,57.00
2017-09-16T15:48:00.882Z,57.10
2017-09-16T15:50:28.918Z,58.60
2017-09-16T15:52:56.978Z,58.90
2017-09-16T15:55:25.814Z,59.50
2017-09-16T15:57:54.809Z,59.50
2017-09-16T16:00:23.606Z,57.80
2017-09-16T16:02:51.674Z,57.70
2017-09-16T16:05:19.751Z,58.60
2017-09-16T16:07:47.856Z,57.70
2017-09-16T16:10:15.903Z,59.60
2017-09-16T16:12:43.981Z,60.20
2017-09-16T16:15:12.085Z,60.30
2017-09-16T16:17:40.953Z,64.90
2017-09-16T16:20:09.037Z,63.90
2017-09-16T16:22:38.618Z,65.80
2017-09-16T16:25:06.737Z,65.80
2017-09-16T16:27:35.573Z,67.30
2017-09-16T16:30:03.652Z,66.40
2017-09-16T16:32:32.466Z,65.20
2017-09-16T16:35:00.525Z,64.80
2017-09-16T16:37:29.352Z,66.70
2017-09-16T16:39:57.465Z,66.60
2017-09-16T16:42:25.522Z,65.90
2017-09-16T16:44:53.607Z,66.90
2017-09-16T16:47:22.513Z,66.90
2017-09-16T16:49:50.641Z,66.70
2017-09-16T16:52:18.746Z,66.00
2017-09-16T16:54:47.571Z,69.40
2017-09-16T16:57:15.672Z,69.40
2017-09-16T16:59:43.732Z,68.90
2017-09-16T17:02:11.799Z,68.30
2017-09-16T17:04:39.944Z,68.70
2017-09-16T17:07:08.770Z,70.80
2017-09-16T17:09:36.840Z,70.90
2017-09-16T17:12:04.914Z,71.60
2017-09-16T17:14:32.979Z,72.20
2017-09-16T17:17:01.048Z,71.50
2017-09-16T17:19:29.091Z,72.60
2017-09-16T17:21:57.175Z,73.80
2017-09-16T17:24:25.243Z,73.90
2017-09-16T17:26:53.338Z,74.70
2017-09-16T17:29:21.380Z,75.30
2017-09-16T17:31:49.462Z,75.30
2017-09-16T17:34:17.545Z,77.50
2017-09-16T17:36:45.624Z,76.60
2017-09-16T17:39:13.693Z,77.70
2017-09-16T17:41:41.766Z,78.20
2017-09-16T17:44:09.843Z,78.60
2017-09-16T17:46:37.907Z,78.50
2017-09-16T17:49:05.987Z,79.40
2017-09-16T17:51:34.081Z,80.70
2017-09-16T17:54:02.143Z,80.40
2017-09-16T17:56:30.205Z,80.60
2017-09-16T17:58:58.271Z,81.60
2017-09-16T18:01:26.335Z,81.20
2017-09-16T18:03:54.397Z,82.40
2017-09-16T18:06:22.459Z,83.20
2017-09-16T18:08:50.531Z,82.80
2017-09-16T18:11:18.587Z,83.80
2017-09-16T18:13:46.698Z,85.50
2017-09-16T18:16:14.763Z,84.70
2017-09-16T18:18:42.838Z,85.10
2017-09-16T18:21:10.902Z,85.30
2017-09-16T18:23:38.968Z,86.10
2017-09-16T18:26:07.038Z,86.60
2017-09-16T18:28:35.112Z,87.90
2017-09-16T18:31:04.539Z,89.40
2017-09-16T18:33:32.595Z,89.20
2017-09-16T18:36:00.689Z,88.50
2017-09-16T18:38:28.765Z,88.10
2017-09-16T18:40:56.834Z,88.70
2017-09-16T18:43:24.896Z,89.00
2017-09-16T18:45:52.983Z,90.10
2017-09-16T18:48:21.044Z,90.00
2017-09-16T18:50:49.148Z,90.00
2017-09-16T18:53:17.931Z,90.20
2017-09-16T18:55:45.970Z,90.50
2017-09-16T18:58:14.055Z,90.80
2017-09-16T19:00:42.126Z,92.10
2017-09-16T19:03:10.206Z,91.50
2017-09-16T19:05:38.275Z,92.70
2017-09-16T19:08:06.365Z,93.00
2017-09-16T19:10:34.432Z,92.90
2017-09-16T19:13:02.506Z,93.00
2017-09-16T19:15:30.585Z,93.50
2017-09-16T19:17:59.580Z,93.10
2017-09-16T19:20:28.406Z,93.50
2017-09-16T19:22:56.495Z,93.60
2017-09-16T19:25:24.564Z,92.90
2017-09-16T19:27:52.606Z,92.70
2017-09-16T19:30:21.455Z,92.90
2017-09-16T19:32:49.523Z,92.90
2017-09-16T19:35:17.572Z,92.80
2017-09-16T19:37:45.670Z,92.30
2017-09-16T19:40:13.706Z,93.00
2017-09-16T19:42:42.128Z,92.20
2017-09-16T19:45:10.189Z,92.80
2017-09-16T19:47:38.260Z,92.30
2017-09-16T19:50:06.340Z,92.20
2017-09-16T19:52:34.404Z,91.90
2017-09-16T19:55:02.489Z,91.60
2017-09-16T19:57:30.585Z,91.60
2017-09-16T19:59:59.390Z,91.40
2017-09-16T20:02:27.479Z,91.40
2017-09-16T20:04:55.551Z,91.50
2017-09-16T20:07:23.616Z,91.40
2017-09-16T20:09:51.701Z,91.20
2017-09-16T20:12:19.753Z,91.30
2017-09-16T20:14:47.812Z,90.90
2017-09-16T20:17:15.908Z,91.10
2017-09-16T20:19:43.983Z,91.10
2017-09-16T20:22:12.084Z,90.80
2017-09-16T20:24:40.151Z,90.90
2017-09-16T20:27:08.223Z,91.30
2017-09-16T20:29:36.562Z,90.70
2017-09-16T20:32:04.622Z,90.90
2017-09-16T20:34:32.675Z,90.40
2017-09-16T20:37:00.782Z,90.50
2017-09-16T20:39:28.861Z,90.90
2017-09-16T20:41:56.932Z,91.20
2017-09-16T20:44:25.023Z,91.40
2017-09-16T20:46:53.071Z,91.60
2017-09-16T20:49:21.157Z,91.70
2017-09-16T20:51:49.242Z,91.90
2017-09-16T20:54:17.293Z,92.00
2017-09-16T20:56:45.360Z,92.70
2017-09-16T20:59:13.439Z,92.60
2017-09-16T21:01:41.514Z,92.80
2017-09-16T21:04:09.579Z,92.80
2017-09-16T21:06:38.488Z,92.90
2017-09-16T21:09:06.544Z,92.80
2017-09-16T21:11:34.623Z,92.70
2017-09-16T21:14:02.704Z,93.10
2017-09-16T21:16:30.773Z,93.30
2017-09-16T21:18:58.816Z,93.60
2017-09-16T21:21:26.893Z,94.00
2017-09-16T21:23:54.969Z,94.40
2017-09-16T21:26:23.100Z,94.40
2017-09-16T21:28:51.955Z,95.10
2017-09-16T21:31:20.012Z,95.10
2017-09-16T21:33:48.092Z,95.20
2017-09-16T21:36:16.958Z,95.50
2017-09-16T21:38:45.004Z,96.00
2017-09-16T21:41:13.106Z,95.80
2017-09-16T21:43:41.951Z,96.10
2017-09-16T21:46:10.041Z,96.00
2017-09-16T21:48:38.107Z,96.20
2017-09-16T21:51:06.171Z,95.90
2017-09-16T21:53:34.280Z,95.60
2017-09-16T21:56:02.332Z,95.60
2017-09-16T21:58:31.459Z,95.80
2017-09-16T22:00:59.514Z,96.00
2017-09-16T22:03:27.583Z,96.10
2017-09-16T22:05:55.646Z,96.40
2017-09-16T22:08:23.723Z,96.50
2017-09-16T22:10:51.812Z,96.70
2017-09-16T22:13:19.855Z,96.80
2017-09-16T22:15:47.913Z,97.10
2017-09-16T22:18:15.983Z,97.40
2017-09-16T22:20:44.058Z,97.30
2017-09-16T22:23:12.128Z,97.40
2017-09-16T22:25:40.221Z,97.60
2017-09-16T22:28:08.263Z,97.50
2017-09-16T22:30:36.342Z,97.50
2017-09-16T22:33:04.417Z,97.70
2017-09-16T22:35:32.470Z,97.70
2017-09-16T22:38:00.540Z,97.50
2017-09-16T22:40:28.606Z,97.50
2017-09-16T22:42:56.671Z,97.50
2017-09-16T22:45:24.742Z,98.10
2017-09-16T22:47:52.824Z,97.80
2017-09-16T22:50:20.882Z,97.60
2017-09-16T22:52:48.960Z,97.80
2017-09-16T22:55:17.029Z,97.80
2017-09-16T22:57:45.135Z,97.70
2017-09-16T23:00:13.220Z,97.90
2017-09-16T23:02:41.284Z,97.90
2017-09-16T23:05:09.339Z,97.30
2017-09-16T23:07:37.404Z,97.30
2017-09-16T23:10:05.488Z,97.50
2017-09-16T23:12:33.535Z,97.70
2017-09-16T23:15:01.606Z,97.60
2017-09-16T23:17:29.660Z,97.90
2017-09-16T23:19:57.735Z,98.00
2017-09-16T23:22:25.855Z,97.90
2017-09-16T23:24:53.922Z,97.80
2017-09-16T23:27:21.995Z,97.60
2017-09-16T23:29:50.084Z,97.70
2017-09-16T23:32:18.431Z,97.90
2017-09-16T23:34:46.491Z,97.90
2017-09-16T23:37:14.555Z,98.00
2017-09-16T23:39:43.378Z,97.30
2017-09-16T23:42:11.444Z,97.30
2017-09-16T23:44:39.507Z,97.30
2017-09-16T23:47:07.566Z,97.50
2017-09-16T23:49:35.647Z,97.40
2017-09-16T23:52:03.720Z,97.60
2017-09-16T23:54:31.792Z,97.70
2017-09-16T23:57:00.883Z,97.90
2017-09-16T23:59:28.973Z,97.60
